createdAt,value
2022-11-23T00:00:06.889Z,6.23
2022-11-23T00:02:33.575Z,5.93
2022-11-23T00:05:00.273Z,4.80
2022-11-23T00:07:27.116Z,5.87
2022-11-23T00:09:54.061Z,5.47
2022-11-23T00:12:20.757Z,6.53
2022-11-23T00:14:47.425Z,4.27
2022-11-23T00:17:14.216Z,3.77
2022-11-23T00:19:40.926Z,5.23
2022-11-23T00:22:07.571Z,4.43
2022-11-23T00:24:34.295Z,6.73
2022-11-23T00:27:00.950Z,4.60
2022-11-23T00:29:27.972Z,5.60
2022-11-23T00:31:54.729Z,5.47
2022-11-23T00:34:21.375Z,6.07
2022-11-23T00:36:47.968Z,6.27
2022-11-23T00:39:14.596Z,5.97
2022-11-23T00:41:43.104Z,4.37
2022-11-23T00:44:10.029Z,4.77
2022-11-23T00:46:36.618Z,6.37
2022-11-23T00:49:05.343Z,8.50
2022-11-23T00:51:33.030Z,7.67
2022-11-23T00:54:00.526Z,10.13
2022-11-23T00:56:28.015Z,7.27
2022-11-23T00:58:55.686Z,6.60
2022-11-23T01:01:24.083Z,7.60
2022-11-23T01:03:52.643Z,8.57
2022-11-23T01:06:21.310Z,8.93
2022-11-23T01:08:48.659Z,5.83
2022-11-23T01:11:15.472Z,3.83
2022-11-23T01:13:42.512Z,6.53
2022-11-23T01:16:19.472Z,8.70
2022-11-23T01:18:52.314Z,7.40
2022-11-23T01:21:18.975Z,6.97
2022-11-23T01:23:45.580Z,7.87
2022-11-23T01:26:12.246Z,5.57
2022-11-23T01:28:39.511Z,5.43
2022-11-23T01:31:11.264Z,5.17
2022-11-23T01:33:38.174Z,9.37
2022-11-23T01:36:15.324Z,6.10
2022-11-23T01:38:44.102Z,6.60
2022-11-23T01:41:15.084Z,7.43
2022-11-23T01:43:41.873Z,10.67
2022-11-23T01:46:08.830Z,4.47
2022-11-23T01:48:41.612Z,4.13
2022-11-23T01:51:28.516Z,7.43
2022-11-23T01:53:57.406Z,5.90
2022-11-23T01:56:27.004Z,12.63
2022-11-23T01:58:55.264Z,7.13
2022-11-23T02:01:21.958Z,7.90
2022-11-23T02:03:49.254Z,9.33
2022-11-23T02:06:17.916Z,8.90
2022-11-23T02:08:44.773Z,9.27
2022-11-23T02:11:16.123Z,7.30
2022-11-23T02:13:44.882Z,6.23
2022-11-23T02:16:11.757Z,6.77
2022-11-23T02:18:40.010Z,6.03
2022-11-23T02:21:07.103Z,7.57
2022-11-23T02:23:39.846Z,7.97
2022-11-23T02:26:19.341Z,6.13
2022-11-23T02:28:48.018Z,10.70
2022-11-23T02:31:14.688Z,11.57
2022-11-23T02:33:41.403Z,8.43
2022-11-23T02:36:26.970Z,5.37
2022-11-23T02:38:54.691Z,13.50
2022-11-23T02:41:22.174Z,8.43
2022-11-23T02:43:52.766Z,7.43
2022-11-23T02:46:19.354Z,9.70
2022-11-23T02:48:49.315Z,12.23
2022-11-23T02:51:15.945Z,10.07
2022-11-23T02:53:42.579Z,6.70
2022-11-23T02:56:10.499Z,6.80
2022-11-23T02:58:37.257Z,7.37
2022-11-23T03:01:06.904Z,7.90
2022-11-23T03:03:33.708Z,11.23
2022-11-23T03:06:04.055Z,9.67
2022-11-23T03:08:32.442Z,12.27
2022-11-23T03:11:01.042Z,5.83
2022-11-23T03:13:29.170Z,9.20
2022-11-23T03:15:59.559Z,4.37
2022-11-23T03:18:26.934Z,10.57
2022-11-23T03:20:54.241Z,8.27
2022-11-23T03:23:20.973Z,5.80
2022-11-23T03:25:54.881Z,5.67
2022-11-23T03:28:22.073Z,8.77
2022-11-23T03:30:48.702Z,10.23
2022-11-23T03:33:15.398Z,4.70
2022-11-23T03:35:42.578Z,5.80
2022-11-23T03:38:18.543Z,9.87
2022-11-23T03:40:48.829Z,5.53
2022-11-23T03:43:22.944Z,5.67
2022-11-23T03:45:49.591Z,7.77
2022-11-23T03:48:16.803Z,5.80
2022-11-23T03:50:44.521Z,3.90
2022-11-23T03:53:11.320Z,6.17
2022-11-23T03:55:38.185Z,3.67
2022-11-23T03:58:05.073Z,7.30
2022-11-23T04:00:35.427Z,5.47
2022-11-23T04:03:02.179Z,8.27
2022-11-23T04:06:03.900Z,6.50
2022-11-23T04:09:00.377Z,7.83
2022-11-23T04:11:47.509Z,3.63
2022-11-23T04:14:14.144Z,5.10
2022-11-23T04:16:40.741Z,9.27
2022-11-23T04:19:07.613Z,8.37
2022-11-23T04:21:34.358Z,5.97
2022-11-23T04:24:01.140Z,12.00
2022-11-23T04:26:30.801Z,6.60
2022-11-23T04:28:57.610Z,10.93
2022-11-23T04:31:24.398Z,9.13
2022-11-23T04:34:04.193Z,6.20
2022-11-23T04:36:30.961Z,9.83
2022-11-23T04:38:58.033Z,10.17
2022-11-23T04:41:34.023Z,4.73
2022-11-23T04:44:02.240Z,9.20
2022-11-23T04:46:28.959Z,8.73
2022-11-23T04:48:59.528Z,7.83
2022-11-23T04:51:26.890Z,11.43
2022-11-23T04:53:54.581Z,11.77
2022-11-23T04:56:21.244Z,14.50
2022-11-23T04:58:48.367Z,10.60
2022-11-23T05:01:15.133Z,8.67
2022-11-23T05:04:04.621Z,8.97
2022-11-23T05:06:31.241Z,11.87
2022-11-23T05:08:59.049Z,7.90
2022-11-23T05:11:57.802Z,7.27
2022-11-23T05:14:25.230Z,9.00
2022-11-23T05:16:52.608Z,13.67
2022-11-23T05:19:19.506Z,8.73
2022-11-23T05:21:46.289Z,12.17
2022-11-23T05:24:14.917Z,9.50
2022-11-23T05:26:53.353Z,10.57
2022-11-23T05:29:22.693Z,11.83
2022-11-23T05:31:49.412Z,8.43
2022-11-23T05:34:17.175Z,7.27
2022-11-23T05:36:46.487Z,7.97
2022-11-23T05:39:13.895Z,7.07
2022-11-23T05:41:40.630Z,10.97
2022-11-23T05:44:21.208Z,7.73
2022-11-23T05:46:47.844Z,16.37
2022-11-23T05:49:15.153Z,13.50
2022-11-23T05:51:42.638Z,13.03
2022-11-23T05:54:09.394Z,12.60
2022-11-23T05:56:42.815Z,7.20
2022-11-23T05:59:15.368Z,6.10
2022-11-23T06:01:46.165Z,8.23
2022-11-23T06:04:19.796Z,9.47
2022-11-23T06:06:46.559Z,8.57
2022-11-23T06:09:13.296Z,6.67
2022-11-23T06:11:44.817Z,5.87
2022-11-23T06:14:15.237Z,7.03
2022-11-23T06:16:44.956Z,6.63
2022-11-23T06:19:38.016Z,5.17
2022-11-23T06:22:05.820Z,3.73
2022-11-23T06:24:37.475Z,7.23
2022-11-23T06:27:42.418Z,11.43
2022-11-23T06:30:20.875Z,14.10
2022-11-23T06:32:48.179Z,11.27
2022-11-23T06:35:15.957Z,7.10
2022-11-23T06:37:44.217Z,11.00
2022-11-23T06:40:12.518Z,7.10
2022-11-23T06:42:40.477Z,9.03
2022-11-23T06:45:16.987Z,6.23
2022-11-23T06:47:44.466Z,6.60
2022-11-23T06:50:11.333Z,8.83
2022-11-23T06:52:39.091Z,5.90
2022-11-23T06:55:05.907Z,6.77
2022-11-23T06:57:32.639Z,8.83
2022-11-23T06:59:59.588Z,5.77
2022-11-23T07:02:32.798Z,9.47
2022-11-23T07:04:59.765Z,4.10
2022-11-23T07:07:28.627Z,8.90
2022-11-23T07:10:07.308Z,7.97
2022-11-23T07:12:49.910Z,8.20
2022-11-23T07:15:19.887Z,7.20
2022-11-23T07:17:46.668Z,7.20
2022-11-23T07:20:14.036Z,12.20
2022-11-23T07:22:40.904Z,7.93
2022-11-23T07:25:08.361Z,12.13
2022-11-23T07:27:35.114Z,12.60
2022-11-23T07:30:02.940Z,12.60
2022-11-23T07:32:30.370Z,9.67
2022-11-23T07:34:57.262Z,4.87
2022-11-23T07:37:25.529Z,8.17
2022-11-23T07:39:57.903Z,9.67
2022-11-23T07:42:39.863Z,7.83
2022-11-23T07:45:10.283Z,8.30
2022-11-23T07:47:39.012Z,9.60
2022-11-23T07:50:06.715Z,15.23
2022-11-23T07:52:35.268Z,7.93
2022-11-23T07:55:02.007Z,6.67
2022-11-23T07:57:28.679Z,7.77
2022-11-23T07:59:55.320Z,7.77
2022-11-23T08:02:21.992Z,8.53
2022-11-23T08:04:48.703Z,11.00
2022-11-23T08:07:15.535Z,9.90
2022-11-23T08:09:42.852Z,10.43
2022-11-23T08:12:09.534Z,7.40
2022-11-23T08:14:36.273Z,11.17
2022-11-23T08:17:03.176Z,6.53
2022-11-23T08:19:29.916Z,8.97
2022-11-23T08:21:56.628Z,12.97
2022-11-23T08:24:23.364Z,10.83
2022-11-23T08:26:50.087Z,9.03
2022-11-23T08:29:16.973Z,5.53
2022-11-23T08:31:43.930Z,10.63
2022-11-23T08:34:10.726Z,7.30
2022-11-23T08:36:37.564Z,9.10
2022-11-23T08:39:04.218Z,10.63
2022-11-23T08:41:30.936Z,9.83
2022-11-23T08:43:57.536Z,8.37
2022-11-23T08:46:25.093Z,7.23
2022-11-23T08:48:51.831Z,7.30
2022-11-23T08:51:22.696Z,6.80
2022-11-23T08:53:50.151Z,4.43
2022-11-23T08:56:17.054Z,7.93
2022-11-23T08:58:44.097Z,5.60
2022-11-23T09:01:15.037Z,6.10
2022-11-23T09:03:42.210Z,5.00
2022-11-23T09:06:08.927Z,9.33
2022-11-23T09:08:36.107Z,3.33
2022-11-23T09:11:03.917Z,6.10
2022-11-23T09:13:30.591Z,8.33
2022-11-23T09:16:00.666Z,5.60
2022-11-23T09:18:28.014Z,7.07
2022-11-23T09:20:54.743Z,8.43
2022-11-23T09:23:21.456Z,2.97
2022-11-23T09:25:50.133Z,8.27
2022-11-23T09:28:19.731Z,6.97
2022-11-23T09:30:47.684Z,4.43
2022-11-23T09:33:14.547Z,4.47
2022-11-23T09:35:44.029Z,10.90
2022-11-23T09:38:10.978Z,6.60
2022-11-23T09:40:38.977Z,4.53
2022-11-23T09:43:17.974Z,7.17
2022-11-23T09:45:49.418Z,5.00
2022-11-23T09:48:28.797Z,3.67
2022-11-23T09:51:05.637Z,2.97
2022-11-23T09:53:32.292Z,7.03
2022-11-23T09:55:58.981Z,5.83
2022-11-23T09:58:27.480Z,5.23
2022-11-23T10:00:59.375Z,6.83
2022-11-23T10:03:26.184Z,5.20
2022-11-23T10:06:16.006Z,3.30
2022-11-23T10:08:51.996Z,6.33
2022-11-23T10:11:33.883Z,5.73
2022-11-23T10:14:00.658Z,3.43
2022-11-23T10:16:27.415Z,4.63
2022-11-23T10:19:06.328Z,3.03
2022-11-23T10:21:35.909Z,8.37
2022-11-23T10:24:08.521Z,6.30
2022-11-23T10:26:37.803Z,6.33
2022-11-23T10:29:13.763Z,3.80
2022-11-23T10:31:43.239Z,4.07
2022-11-23T10:34:14.066Z,3.73
2022-11-23T10:36:41.401Z,5.53
2022-11-23T10:39:17.758Z,5.30
2022-11-23T10:41:44.804Z,4.57
2022-11-23T10:44:22.105Z,5.37
2022-11-23T10:46:48.770Z,3.70
2022-11-23T10:49:17.148Z,2.57
2022-11-23T10:52:00.444Z,4.10
2022-11-23T10:54:30.146Z,4.03
2022-11-23T10:56:58.144Z,3.03
2022-11-23T10:59:29.636Z,2.20
2022-11-23T11:02:11.324Z,4.20
2022-11-23T11:04:38.086Z,2.77
2022-11-23T11:07:25.363Z,4.83
2022-11-23T11:09:56.586Z,3.80
2022-11-23T11:12:23.751Z,4.03
2022-11-23T11:15:11.790Z,5.07
2022-11-23T11:17:39.783Z,3.40
2022-11-23T11:20:24.932Z,5.13
2022-11-23T11:22:51.586Z,3.37
2022-11-23T11:25:27.385Z,4.43
2022-11-23T11:27:54.152Z,3.30
2022-11-23T11:30:22.654Z,2.43
2022-11-23T11:32:54.330Z,3.60
2022-11-23T11:35:26.432Z,2.67
2022-11-23T11:37:56.018Z,3.07
2022-11-23T11:40:37.199Z,3.90
2022-11-23T11:43:03.842Z,6.33
2022-11-23T11:45:36.934Z,4.80
2022-11-23T11:48:06.557Z,3.33
2022-11-23T11:50:36.533Z,8.77
2022-11-23T11:53:05.642Z,1.90
2022-11-23T11:55:40.693Z,1.70
2022-11-23T11:58:11.441Z,3.03
2022-11-23T12:00:44.886Z,2.73
2022-11-23T12:03:38.164Z,1.80
2022-11-23T12:06:08.657Z,2.43
2022-11-23T12:08:54.267Z,2.90
2022-11-23T12:11:21.066Z,3.53
2022-11-23T12:13:47.837Z,3.90
2022-11-23T12:16:23.596Z,3.97
2022-11-23T12:18:59.447Z,2.47
2022-11-23T12:21:41.294Z,2.90
2022-11-23T12:24:27.051Z,1.27
2022-11-23T12:27:12.752Z,5.00
2022-11-23T12:29:45.432Z,2.83
2022-11-23T12:32:12.064Z,4.00
2022-11-23T12:34:57.425Z,3.33
2022-11-23T12:37:42.873Z,3.97
2022-11-23T12:40:28.165Z,2.87
2022-11-23T12:43:00.812Z,3.20
2022-11-23T12:45:30.611Z,2.83
2022-11-23T12:48:20.320Z,5.27
2022-11-23T12:50:52.789Z,2.20
2022-11-23T12:53:38.148Z,3.33
2022-11-23T12:56:10.728Z,4.13
2022-11-23T12:58:38.572Z,3.47
2022-11-23T13:01:07.550Z,3.73
2022-11-23T13:03:52.570Z,3.70
2022-11-23T13:07:12.420Z,2.90
2022-11-23T13:09:51.422Z,5.03
2022-11-23T13:12:20.812Z,3.40
2022-11-23T13:15:06.134Z,2.47
2022-11-23T13:17:56.717Z,2.03
2022-11-23T13:20:36.578Z,4.27
2022-11-23T13:23:04.970Z,3.53
2022-11-23T13:25:31.770Z,4.03
2022-11-23T13:28:30.598Z,5.50
2022-11-23T13:31:15.917Z,5.33
2022-11-23T13:33:43.876Z,6.50
2022-11-23T13:36:18.313Z,3.33
2022-11-23T13:38:46.574Z,2.43
2022-11-23T13:41:33.495Z,2.13
2022-11-23T13:44:19.211Z,2.80
2022-11-23T13:47:06.228Z,2.50
2022-11-23T13:49:43.289Z,2.73
2022-11-23T13:52:16.239Z,3.70
2022-11-23T13:54:53.040Z,7.07
2022-11-23T13:57:19.767Z,4.40
2022-11-23T13:59:46.426Z,4.30
2022-11-23T14:02:13.717Z,3.37
2022-11-23T14:04:44.465Z,5.07
2022-11-23T14:07:11.221Z,2.70
2022-11-23T14:09:53.262Z,5.17
2022-11-23T14:12:26.314Z,3.33
2022-11-23T14:14:55.971Z,5.57
2022-11-23T14:17:25.430Z,4.63
2022-11-23T14:20:11.333Z,2.87
2022-11-23T14:22:56.943Z,4.97
2022-11-23T14:25:34.703Z,4.43
2022-11-23T14:28:20.123Z,5.87
2022-11-23T14:30:58.713Z,6.50
2022-11-23T14:33:43.974Z,7.93
2022-11-23T14:36:29.473Z,4.87
2022-11-23T14:39:02.022Z,5.43
2022-11-23T14:41:30.932Z,7.13
2022-11-23T14:44:00.306Z,8.83
2022-11-23T14:46:27.104Z,6.47
2022-11-23T14:49:03.342Z,9.83
2022-11-23T14:51:30.137Z,10.13
2022-11-23T14:53:59.004Z,5.20
2022-11-23T14:56:31.502Z,7.30
2022-11-23T14:59:01.613Z,8.97
2022-11-23T15:01:28.424Z,8.93
2022-11-23T15:03:56.468Z,6.30
2022-11-23T15:06:25.596Z,8.43
2022-11-23T15:09:11.014Z,6.53
2022-11-23T15:11:37.735Z,13.07
2022-11-23T15:14:16.491Z,9.90
2022-11-23T15:16:43.112Z,6.43
2022-11-23T15:19:29.125Z,10.43
2022-11-23T15:21:56.566Z,8.10
2022-11-23T15:24:24.956Z,8.20
2022-11-23T15:26:51.874Z,6.83
2022-11-23T15:29:38.676Z,7.03
2022-11-23T15:32:36.302Z,8.73
2022-11-23T15:35:06.967Z,10.17
2022-11-23T15:37:36.840Z,7.83
2022-11-23T15:40:06.656Z,6.13
2022-11-23T15:42:33.339Z,10.27
2022-11-23T15:45:00.048Z,5.93
2022-11-23T15:47:28.141Z,6.03
2022-11-23T15:50:02.133Z,7.33
2022-11-23T15:52:33.229Z,7.37
2022-11-23T15:55:08.605Z,7.03
2022-11-23T15:57:37.111Z,1.93
2022-11-23T16:00:04.802Z,4.10
2022-11-23T16:02:38.931Z,4.23
2022-11-23T16:05:10.108Z,5.53
2022-11-23T16:07:49.589Z,3.97
2022-11-23T16:10:20.858Z,6.70
2022-11-23T16:12:49.936Z,2.87
2022-11-23T16:15:38.138Z,2.37
2022-11-23T16:18:05.584Z,3.40
2022-11-23T16:20:32.742Z,0.13
2022-11-23T16:23:00.481Z,0.20
2022-11-23T16:25:34.340Z,0.20
2022-11-23T16:28:05.740Z,0.10
2022-11-23T16:30:39.528Z,0.10
2022-11-23T16:33:06.407Z,0.27
2022-11-23T16:35:33.104Z,0.10
2022-11-23T16:37:59.750Z,0.20
2022-11-23T16:40:26.857Z,0.10
2022-11-23T16:42:53.840Z,0.10
2022-11-23T16:45:20.676Z,0.30
2022-11-23T16:47:51.863Z,0.30
2022-11-23T16:50:18.877Z,0.10
2022-11-23T16:52:45.537Z,0.10
2022-11-23T16:55:12.146Z,0.20
2022-11-23T16:57:39.236Z,0.20
2022-11-23T17:00:07.752Z,0.10
2022-11-23T17:02:34.437Z,0.10
2022-11-23T17:05:01.162Z,0.17
2022-11-23T17:07:27.942Z,0.20
2022-11-23T17:09:54.723Z,0.10
2022-11-23T17:12:21.322Z,0.10
2022-11-23T17:14:48.522Z,0.10
2022-11-23T17:17:22.372Z,0.10
2022-11-23T17:19:49.911Z,0.10
2022-11-23T17:22:17.383Z,0.20
2022-11-23T17:24:44.392Z,0.30
2022-11-23T17:27:20.238Z,0.10
2022-11-23T17:29:47.244Z,0.13
2022-11-23T17:32:14.536Z,0.20
2022-11-23T17:34:41.320Z,0.20
2022-11-23T17:37:16.511Z,0.10
2022-11-23T17:39:43.249Z,0.10
2022-11-23T17:42:11.369Z,0.20
2022-11-23T17:44:38.047Z,0.20
2022-11-23T17:47:05.158Z,0.10
2022-11-23T17:49:32.581Z,0.20
2022-11-23T17:51:59.443Z,0.20
2022-11-23T17:54:26.112Z,0.10
2022-11-23T17:56:52.713Z,0.10
2022-11-23T17:59:19.367Z,0.10
2022-11-23T18:01:46.041Z,0.10
2022-11-23T18:04:12.825Z,0.20
2022-11-23T18:06:39.499Z,0.10
2022-11-23T18:09:06.703Z,1.47
2022-11-23T18:11:33.275Z,4.30
2022-11-23T18:13:59.913Z,3.10
2022-11-23T18:16:26.622Z,4.27
2022-11-23T18:18:53.402Z,3.93
2022-11-23T18:21:20.041Z,5.70
2022-11-23T18:23:47.038Z,7.40
2022-11-23T18:26:21.264Z,9.17
2022-11-23T18:28:48.651Z,5.67
2022-11-23T18:31:16.038Z,6.10
2022-11-23T18:33:42.962Z,7.43
2022-11-23T18:36:10.630Z,7.03
2022-11-23T18:38:37.814Z,5.70
2022-11-23T18:41:04.647Z,8.20
2022-11-23T18:43:31.364Z,6.97
2022-11-23T18:45:58.166Z,5.23
2022-11-23T18:48:25.034Z,6.60
2022-11-23T18:50:51.714Z,8.00
2022-11-23T18:53:18.962Z,7.20
2022-11-23T18:55:45.620Z,8.50
2022-11-23T18:58:12.383Z,5.27
2022-11-23T19:00:38.987Z,8.00
2022-11-23T19:03:05.576Z,9.77
2022-11-23T19:05:33.533Z,7.80
2022-11-23T19:08:04.405Z,9.60
2022-11-23T19:10:35.238Z,7.97
2022-11-23T19:13:05.465Z,11.37
2022-11-23T19:15:33.462Z,12.73
2022-11-23T19:18:00.360Z,8.40
2022-11-23T19:20:28.873Z,10.20
2022-11-23T19:22:55.756Z,13.60
2022-11-23T19:25:22.400Z,16.57
2022-11-23T19:27:51.367Z,12.30
2022-11-23T19:30:18.469Z,10.53
2022-11-23T19:32:46.520Z,10.73
2022-11-23T19:35:13.179Z,11.27
2022-11-23T19:37:40.131Z,19.63
2022-11-23T19:40:07.253Z,17.03
2022-11-23T19:42:35.831Z,16.73
2022-11-23T19:45:03.403Z,16.10
2022-11-23T19:47:34.314Z,21.47
2022-11-23T19:50:01.223Z,11.80
2022-11-23T19:52:41.999Z,14.37
2022-11-23T19:55:16.100Z,19.90
2022-11-23T19:57:42.761Z,22.33
2022-11-23T20:00:09.705Z,10.73
2022-11-23T20:02:38.773Z,14.00
2022-11-23T20:05:05.750Z,13.20
2022-11-23T20:07:32.535Z,18.83
2022-11-23T20:09:59.606Z,17.17
2022-11-23T20:12:26.249Z,12.13
2022-11-23T20:14:52.863Z,10.67
2022-11-23T20:17:19.668Z,10.13
2022-11-23T20:19:46.594Z,13.77
2022-11-23T20:22:13.209Z,14.50
2022-11-23T20:24:39.811Z,17.63
2022-11-23T20:27:06.385Z,12.97
2022-11-23T20:29:33.155Z,22.30
2022-11-23T20:31:59.946Z,15.13
2022-11-23T20:34:27.306Z,17.83
2022-11-23T20:36:53.923Z,17.83
2022-11-23T20:39:20.560Z,10.17
2022-11-23T20:41:49.458Z,11.87
2022-11-23T20:44:16.175Z,13.70
2022-11-23T20:49:30.481Z,12.03
2022-11-23T20:51:57.303Z,14.83
2022-11-23T20:54:24.513Z,18.60
2022-11-23T20:56:51.132Z,12.23
2022-11-23T20:59:19.708Z,12.53
2022-11-23T21:01:46.355Z,15.07
2022-11-23T21:04:13.255Z,17.27
2022-11-23T21:06:40.386Z,15.07
2022-11-23T21:09:07.828Z,20.27
2022-11-23T21:11:53.091Z,16.80
2022-11-23T21:14:20.648Z,12.70
2022-11-23T21:16:55.911Z,15.73
2022-11-23T21:19:24.005Z,11.17
2022-11-23T21:21:51.119Z,13.83
2022-11-23T21:24:18.247Z,16.17
2022-11-23T21:26:44.935Z,17.53
2022-11-23T21:29:11.676Z,9.37
2022-11-23T21:31:39.437Z,18.17
2022-11-23T21:34:06.354Z,14.60
2022-11-23T21:36:34.379Z,16.77
2022-11-23T21:39:01.771Z,12.63
2022-11-23T21:41:28.411Z,16.87
2022-11-23T21:43:55.326Z,14.07
2022-11-23T21:46:23.598Z,18.43
2022-11-23T21:48:57.069Z,12.33
2022-11-23T21:51:26.806Z,18.40
2022-11-23T21:53:54.158Z,12.97
2022-11-23T21:56:20.917Z,15.60
2022-11-23T21:58:47.738Z,11.37
2022-11-23T22:01:18.932Z,20.33
2022-11-23T22:03:46.916Z,13.70
2022-11-23T22:06:20.200Z,17.03
2022-11-23T22:08:48.303Z,11.53
2022-11-23T22:11:24.779Z,12.30
2022-11-23T22:13:55.183Z,15.43
2022-11-23T22:16:23.249Z,10.77
2022-11-23T22:18:55.404Z,17.17
2022-11-23T22:21:24.272Z,21.20
2022-11-23T22:23:51.071Z,19.73
2022-11-23T22:26:18.515Z,11.47
2022-11-23T22:28:47.403Z,18.23
2022-11-23T22:31:15.243Z,15.50
2022-11-23T22:33:42.272Z,14.80
2022-11-23T22:36:10.337Z,15.83
2022-11-23T22:38:37.011Z,12.40
2022-11-23T22:41:04.563Z,12.23
2022-11-23T22:43:31.346Z,21.33
2022-11-23T22:46:05.782Z,17.50
2022-11-23T22:48:32.711Z,17.90
2022-11-23T22:51:00.514Z,17.03
2022-11-23T22:53:27.767Z,14.33
2022-11-23T22:55:54.638Z,12.53
2022-11-23T22:58:21.257Z,14.97
2022-11-23T23:00:47.896Z,9.53
2022-11-23T23:03:14.806Z,15.33
2022-11-23T23:05:41.472Z,9.80
2022-11-23T23:08:08.243Z,9.00
2022-11-23T23:10:35.740Z,14.93
2022-11-23T23:13:02.367Z,16.80
2022-11-23T23:15:29.098Z,14.33
2022-11-23T23:17:55.971Z,13.23
2022-11-23T23:20:22.714Z,8.70
2022-11-23T23:22:49.394Z,10.23
2022-11-23T23:25:15.986Z,14.40
2022-11-23T23:27:42.690Z,13.07
2022-11-23T23:30:09.634Z,12.47
2022-11-23T23:32:36.331Z,15.87
2022-11-23T23:35:03.042Z,11.40
2022-11-23T23:37:31.078Z,15.57
2022-11-23T23:39:57.842Z,15.37
2022-11-23T23:42:24.989Z,9.60
2022-11-23T23:44:51.634Z,9.60
2022-11-23T23:47:18.679Z,11.13
2022-11-23T23:49:45.313Z,11.43
2022-11-23T23:52:12.097Z,13.30
2022-11-23T23:54:38.738Z,8.77
2022-11-23T23:57:05.381Z,10.47
2022-11-23T23:59:32.012Z,9.83
